sensor_id;sensor_type;location;lat;lon;timestamp;pressure;altitude;pressure_sealevel;temperature;humidity
60099;BME280;62818;49.394;8.686;2023-07-29T00:00:08;99793.56;;;19.11;100.00
60099;BME280;62818;49.394;8.686;2023-07-29T00:01:09;99793.50;;;19.06;100.00
60099;BME280;62818;49.394;8.686;2023-07-29T00:02:09;99789.34;;;18.99;100.00
60099;BME280;62818;49.394;8.686;2023-07-29T00:03:10;99791.53;;;19.02;100.00
60099;BME280;62818;49.394;8.686;2023-07-29T00:04:11;99783.72;;;19.00;100.00
60099;BME280;62818;49.394;8.686;2023-07-29T00:05:12;99780.63;;;19.08;100.00
60099;BME280;62818;49.394;8.686;2023-07-29T00:06:12;99783.88;;;19.10;100.00
60099;BME280;62818;49.394;8.686;2023-07-29T00:07:13;99788.50;;;19.15;100.00
60099;BME280;62818;49.394;8.686;2023-07-29T00:08:13;99786.50;;;19.05;100.00
60099;BME280;62818;49.394;8.686;2023-07-29T00:09:14;99777.84;;;19.03;100.00
60099;BME280;62818;49.394;8.686;2023-07-29T00:10:14;99787.63;;;19.09;100.00
60099;BME280;62818;49.394;8.686;2023-07-29T00:11:15;99780.16;;;19.11;100.00
60099;BME280;62818;49.394;8.686;2023-07-29T00:12:15;99776.31;;;19.07;100.00
60099;BME280;62818;49.394;8.686;2023-07-29T00:13:16;99777.84;;;19.03;100.00
60099;BME280;62818;49.394;8.686;2023-07-29T00:14:17;99782.75;;;19.06;100.00
60099;BME280;62818;49.394;8.686;2023-07-29T00:15:17;99775.97;;;19.04;100.00
60099;BME280;62818;49.394;8.686;2023-07-29T00:16:17;99785.19;;;19.08;100.00
60099;BME280;62818;49.394;8.686;2023-07-29T00:17:22;99774.44;;;19.08;100.00
60099;BME280;62818;49.394;8.686;2023-07-29T00:18:22;99779.06;;;19.12;100.00
60099;BME280;62818;49.394;8.686;2023-07-29T00:19:23;99778.59;;;19.15;100.00
60099;BME280;62818;49.394;8.686;2023-07-29T00:20:24;99775.91;;;19.15;100.00
60099;BME280;62818;49.394;8.686;2023-07-29T00:21:24;99774.59;;;19.18;100.00
60099;BME280;62818;49.394;8.686;2023-07-29T00:22:25;99773.78;;;19.17;100.00
60099;BME280;62818;49.394;8.686;2023-07-29T00:23:25;99773.53;;;19.19;100.00
60099;BME280;62818;49.394;8.686;2023-07-29T00:24:26;99774.34;;;19.19;100.00
60099;BME280;62818;49.394;8.686;2023-07-29T00:25:26;99775.44;;;19.18;100.00
60099;BME280;62818;49.394;8.686;2023-07-29T00:26:27;99768.16;;;19.19;100.00
60099;BME280;62818;49.394;8.686;2023-07-29T00:27:29;99775.16;;;19.20;100.00
60099;BME280;62818;49.394;8.686;2023-07-29T00:28:29;99783.22;;;19.20;100.00
60099;BME280;62818;49.394;8.686;2023-07-29T00:29:30;99773.63;;;19.24;100.00
60099;BME280;62818;49.394;8.686;2023-07-29T00:30:30;99776.03;;;19.25;100.00
60099;BME280;62818;49.394;8.686;2023-07-29T00:31:31;99778.50;;;19.27;100.00
60099;BME280;62818;49.394;8.686;2023-07-29T00:32:31;99784.19;;;19.31;100.00
60099;BME280;62818;49.394;8.686;2023-07-29T00:33:31;99775.66;;;19.34;100.00
60099;BME280;62818;49.394;8.686;2023-07-29T00:34:32;99773.13;;;19.27;100.00
60099;BME280;62818;49.394;8.686;2023-07-29T00:35:32;99778.59;;;19.15;100.00
60099;BME280;62818;49.394;8.686;2023-07-29T00:36:33;99770.63;;;19.20;100.00
60099;BME280;62818;49.394;8.686;2023-07-29T00:37:33;99763.59;;;19.19;100.00
60099;BME280;62818;49.394;8.686;2023-07-29T00:38:34;99754.59;;;19.09;100.00
60099;BME280;62818;49.394;8.686;2023-07-29T00:39:34;99757.56;;;19.12;100.00
60099;BME280;62818;49.394;8.686;2023-07-29T00:40:36;99758.41;;;19.13;100.00
60099;BME280;62818;49.394;8.686;2023-07-29T00:41:37;99756.06;;;19.16;100.00
60099;BME280;62818;49.394;8.686;2023-07-29T00:42:37;99756.34;;;19.03;100.00
60099;BME280;62818;49.394;8.686;2023-07-29T00:43:38;99748.38;;;19.08;100.00
60099;BME280;62818;49.394;8.686;2023-07-29T00:44:38;99751.97;;;19.14;100.00
60099;BME280;62818;49.394;8.686;2023-07-29T00:45:39;99754.16;;;19.17;100.00
60099;BME280;62818;49.394;8.686;2023-07-29T00:46:45;99757.19;;;19.20;100.00
60099;BME280;62818;49.394;8.686;2023-07-29T00:47:47;99759.31;;;19.18;100.00
60099;BME280;62818;49.394;8.686;2023-07-29T00:48:47;99748.78;;;19.17;100.00
60099;BME280;62818;49.394;8.686;2023-07-29T00:49:48;99755.22;;;19.16;100.00
60099;BME280;62818;49.394;8.686;2023-07-29T00:50:50;99751.28;;;19.23;100.00
60099;BME280;62818;49.394;8.686;2023-07-29T00:51:51;99746.44;;;19.20;100.00
60099;BME280;62818;49.394;8.686;2023-07-29T00:52:51;99740.41;;;19.13;100.00
60099;BME280;62818;49.394;8.686;2023-07-29T00:53:52;99749.03;;;19.15;100.00
60099;BME280;62818;49.394;8.686;2023-07-29T00:54:52;99744.66;;;19.09;100.00
60099;BME280;62818;49.394;8.686;2023-07-29T00:55:53;99745.31;;;19.16;100.00
60099;BME280;62818;49.394;8.686;2023-07-29T00:56:54;99741.78;;;19.16;100.00
60099;BME280;62818;49.394;8.686;2023-07-29T00:57:54;99743.19;;;19.18;100.00
60099;BME280;62818;49.394;8.686;2023-07-29T00:58:55;99747.41;;;19.14;100.00
60099;BME280;62818;49.394;8.686;2023-07-29T00:59:59;99745.31;;;19.16;100.00
60099;BME280;62818;49.394;8.686;2023-07-29T01:01:00;99747.22;;;19.21;100.00
60099;BME280;62818;49.394;8.686;2023-07-29T01:02:02;99745.78;;;19.13;100.00
60099;BME280;62818;49.394;8.686;2023-07-29T01:03:03;99739.94;;;19.16;100.00
60099;BME280;62818;49.394;8.686;2023-07-29T01:04:03;99739.28;;;19.09;100.00
60099;BME280;62818;49.394;8.686;2023-07-29T01:05:04;99732.91;;;19.15;100.00
60099;BME280;62818;49.394;8.686;2023-07-29T01:06:18;99739.94;;;19.00;100.00
60099;BME280;62818;49.394;8.686;2023-07-29T01:07:33;99734.16;;;18.91;100.00
60099;BME280;62818;49.394;8.686;2023-07-29T01:08:46;99733.75;;;18.99;100.00
60099;BME280;62818;49.394;8.686;2023-07-29T01:12:08;99742.06;;;18.98;100.00
60099;BME280;62818;49.394;8.686;2023-07-29T01:13:37;99734.72;;;18.93;100.00
60099;BME280;62818;49.394;8.686;2023-07-29T01:15:06;99734.31;;;19.01;100.00
60099;BME280;62818;49.394;8.686;2023-07-29T01:16:19;99743.53;;;19.05;100.00
60099;BME280;62818;49.394;8.686;2023-07-29T01:17:33;99739.53;;;18.91;100.00
60099;BME280;62818;49.394;8.686;2023-07-29T01:18:36;99740.84;;;18.89;100.00
60099;BME280;62818;49.394;8.686;2023-07-29T01:20:07;99731.78;;;18.95;100.00
60099;BME280;62818;49.394;8.686;2023-07-29T01:21:09;99729.03;;;19.06;100.00
60099;BME280;62818;49.394;8.686;2023-07-29T01:22:11;99722.50;;;19.02;100.00
60099;BME280;62818;49.394;8.686;2023-07-29T01:23:15;99725.13;;;19.14;100.00
60099;BME280;62818;49.394;8.686;2023-07-29T01:24:16;99724.28;;;19.13;100.00
60099;BME280;62818;49.394;8.686;2023-07-29T01:25:16;99723.16;;;19.09;100.00
60099;BME280;62818;49.394;8.686;2023-07-29T01:26:17;99716.06;;;19.03;100.00
60099;BME280;62818;49.394;8.686;2023-07-29T01:27:17;99716.56;;;19.00;100.00
60099;BME280;62818;49.394;8.686;2023-07-29T01:28:18;99720.97;;;19.06;100.00
60099;BME280;62818;49.394;8.686;2023-07-29T01:29:18;99723.81;;;19.16;100.00
60099;BME280;62818;49.394;8.686;2023-07-29T01:30:20;99720.56;;;18.98;100.00
60099;BME280;62818;49.394;8.686;2023-07-29T01:31:32;99722.13;;;18.94;100.00
60099;BME280;62818;49.394;8.686;2023-07-29T01:34:18;99716.16;;;19.08;100.00
60099;BME280;62818;49.394;8.686;2023-07-29T01:36:59;99704.88;;;18.90;100.00
60099;BME280;62818;49.394;8.686;2023-07-29T01:39:21;99707.53;;;19.06;100.00
60099;BME280;62818;49.394;8.686;2023-07-29T01:40:27;99712.41;;;19.09;100.00
60099;BME280;62818;49.394;8.686;2023-07-29T01:41:28;99708.53;;;19.00;100.00
60099;BME280;62818;49.394;8.686;2023-07-29T01:42:29;99708.00;;;19.03;100.00
60099;BME280;62818;49.394;8.686;2023-07-29T01:43:32;99696.13;;;18.99;100.00
60099;BME280;62818;49.394;8.686;2023-07-29T01:44:34;99702.59;;;18.98;100.00
60099;BME280;62818;49.394;8.686;2023-07-29T01:45:36;99700.53;;;19.05;100.00
60099;BME280;62818;49.394;8.686;2023-07-29T01:46:38;99698.34;;;19.02;100.00
60099;BME280;62818;49.394;8.686;2023-07-29T01:47:38;99708.25;;;19.02;100.00
60099;BME280;62818;49.394;8.686;2023-07-29T01:48:41;99708.81;;;19.04;100.00
60099;BME280;62818;49.394;8.686;2023-07-29T01:49:42;99711.78;;;19.02;100.00
60099;BME280;62818;49.394;8.686;2023-07-29T01:50:43;99717.84;;;19.14;100.00
60099;BME280;62818;49.394;8.686;2023-07-29T01:51:43;99718.44;;;19.16;100.00
60099;BME280;62818;49.394;8.686;2023-07-29T01:52:44;99710.44;;;19.21;100.00
60099;BME280;62818;49.394;8.686;2023-07-29T01:53:44;99712.56;;;19.19;100.00
60099;BME280;62818;49.394;8.686;2023-07-29T01:54:45;99711.41;;;19.15;100.00
60099;BME280;62818;49.394;8.686;2023-07-29T01:55:45;99710.28;;;19.11;100.00
60099;BME280;62818;49.394;8.686;2023-07-29T01:56:46;99702.63;;;19.03;100.00
60099;BME280;62818;49.394;8.686;2023-07-29T01:57:46;99707.53;;;19.06;100.00
60099;BME280;62818;49.394;8.686;2023-07-29T01:58:47;99703.22;;;19.05;100.00
60099;BME280;62818;49.394;8.686;2023-07-29T01:59:47;99709.16;;;19.07;100.00
60099;BME280;62818;49.394;8.686;2023-07-29T02:00:48;99701.28;;;19.01;100.00
60099;BME280;62818;49.394;8.686;2023-07-29T02:01:48;99710.47;;;19.05;100.00
60099;BME280;62818;49.394;8.686;2023-07-29T02:02:49;99707.28;;;19.08;100.00
60099;BME280;62818;49.394;8.686;2023-07-29T02:03:49;99708.81;;;19.04;100.00
60099;BME280;62818;49.394;8.686;2023-07-29T02:04:54;99697.78;;;19.00;100.00
60099;BME280;62818;49.394;8.686;2023-07-29T02:05:56;99697.25;;;19.03;100.00
60099;BME280;62818;49.394;8.686;2023-07-29T02:06:56;99701.44;;;18.94;100.00
60099;BME280;62818;49.394;8.686;2023-07-29T02:07:57;99692.97;;;19.02;100.00
60099;BME280;62818;49.394;8.686;2023-07-29T02:08:57;99696.88;;;19.11;100.00
60099;BME280;62818;49.394;8.686;2023-07-29T02:09:58;99704.28;;;19.04;100.00
60099;BME280;62818;49.394;8.686;2023-07-29T02:10:58;99695.00;;;18.95;100.00
60099;BME280;62818;49.394;8.686;2023-07-29T02:11:59;99695.81;;;18.96;100.00
60099;BME280;62818;49.394;8.686;2023-07-29T02:12:59;99695.53;;;18.92;100.00
60099;BME280;62818;49.394;8.686;2023-07-29T02:14:00;99699.91;;;18.82;100.00
60099;BME280;62818;49.394;8.686;2023-07-29T02:15:00;99700.06;;;18.92;100.00
60099;BME280;62818;49.394;8.686;2023-07-29T02:16:01;99697.78;;;19.00;100.00
60099;BME280;62818;49.394;8.686;2023-07-29T02:17:01;99692.72;;;19.04;100.00
60099;BME280;62818;49.394;8.686;2023-07-29T02:18:02;99690.28;;;19.02;100.00
60099;BME280;62818;49.394;8.686;2023-07-29T02:19:03;99689.63;;;18.95;100.00
60099;BME280;62818;49.394;8.686;2023-07-29T02:20:04;99690.53;;;18.84;100.00
60099;BME280;62818;49.394;8.686;2023-07-29T02:21:05;99685.09;;;18.79;100.00
60099;BME280;62818;49.394;8.686;2023-07-29T02:22:06;99693.88;;;18.91;100.00
60099;BME280;62818;49.394;8.686;2023-07-29T02:23:06;99698.13;;;18.87;100.00
60099;BME280;62818;49.394;8.686;2023-07-29T02:24:07;99703.50;;;18.87;100.00
60099;BME280;62818;49.394;8.686;2023-07-29T02:25:07;99693.88;;;18.91;100.00
60099;BME280;62818;49.394;8.686;2023-07-29T02:26:08;99695.34;;;18.82;100.00
60099;BME280;62818;49.394;8.686;2023-07-29T02:27:09;99691.66;;;18.88;100.00
60099;BME280;62818;49.394;8.686;2023-07-29T02:28:09;99699.50;;;18.90;100.00
60099;BME280;62818;49.394;8.686;2023-07-29T02:29:10;99694.44;;;18.93;100.00
60099;BME280;62818;49.394;8.686;2023-07-29T02:30:11;99701.19;;;18.96;100.00
60099;BME280;62818;49.394;8.686;2023-07-29T02:31:22;99703.16;;;19.00;100.00
60099;BME280;62818;49.394;8.686;2023-07-29T02:32:24;99689.72;;;19.00;100.00
60099;BME280;62818;49.394;8.686;2023-07-29T02:33:25;99697.94;;;18.94;100.00
60099;BME280;62818;49.394;8.686;2023-07-29T02:34:25;99701.03;;;19.02;100.00
60099;BME280;62818;49.394;8.686;2023-07-29T02:35:26;99712.91;;;19.06;100.00
60099;BME280;62818;49.394;8.686;2023-07-29T02:36:27;99710.28;;;19.11;100.00
60099;BME280;62818;49.394;8.686;2023-07-29T02:37:27;99719.47;;;19.15;100.00
60099;BME280;62818;49.394;8.686;2023-07-29T02:38:28;99711.72;;;19.19;100.00
60099;BME280;62818;49.394;8.686;2023-07-29T02:39:28;99720.31;;;19.16;100.00
60099;BME280;62818;49.394;8.686;2023-07-29T02:40:29;99725.72;;;19.21;100.00
60099;BME280;62818;49.394;8.686;2023-07-29T02:41:29;99722.31;;;19.25;100.00
60099;BME280;62818;49.394;8.686;2023-07-29T02:42:30;99726.94;;;19.30;100.00
60099;BME280;62818;49.394;8.686;2023-07-29T02:43:30;99727.19;;;19.29;100.00
60099;BME280;62818;49.394;8.686;2023-07-29T02:44:30;99723.88;;;19.21;100.00
60099;BME280;62818;49.394;8.686;2023-07-29T02:45:31;99723.88;;;19.21;100.00
60099;BME280;62818;49.394;8.686;2023-07-29T02:46:32;99722.47;;;19.19;100.00
60099;BME280;62818;49.394;8.686;2023-07-29T02:47:32;99712.97;;;19.11;100.00
60099;BME280;62818;49.394;8.686;2023-07-29T02:48:33;99718.44;;;19.16;100.00
60099;BME280;62818;49.394;8.686;2023-07-29T02:49:33;99726.25;;;19.18;100.00
60099;BME280;62818;49.394;8.686;2023-07-29T02:50:34;99718.66;;;19.15;100.00
60099;BME280;62818;49.394;8.686;2023-07-29T02:51:34;99721.59;;;19.13;100.00
60099;BME280;62818;49.394;8.686;2023-07-29T02:52:35;99717.84;;;19.14;100.00
60099;BME280;62818;49.394;8.686;2023-07-29T02:53:35;99721.34;;;19.15;100.00
60099;BME280;62818;49.394;8.686;2023-07-29T02:54:38;99718.44;;;19.16;100.00
60099;BME280;62818;49.394;8.686;2023-07-29T02:55:40;99724.38;;;19.18;100.00
60099;BME280;62818;49.394;8.686;2023-07-29T02:56:40;99723.22;;;19.14;100.00
60099;BME280;62818;49.394;8.686;2023-07-29T02:57:41;99722.16;;;19.15;100.00
60099;BME280;62818;49.394;8.686;2023-07-29T02:58:41;99712.72;;;19.13;100.00
60099;BME280;62818;49.394;8.686;2023-07-29T02:59:42;99719.97;;;19.12;100.00
60099;BME280;62818;49.394;8.686;2023-07-29T03:00:42;99720.53;;;19.14;100.00
60099;BME280;62818;49.394;8.686;2023-07-29T03:01:43;99713.53;;;19.13;100.00
60099;BME280;62818;49.394;8.686;2023-07-29T03:02:44;99708.44;;;19.12;100.00
60099;BME280;62818;49.394;8.686;2023-07-29T03:03:44;99706.47;;;19.07;100.00
60099;BME280;62818;49.394;8.686;2023-07-29T03:04:45;99704.28;;;19.04;100.00
60099;BME280;62818;49.394;8.686;2023-07-29T03:05:48;99704.09;;;19.11;100.00
60099;BME280;62818;49.394;8.686;2023-07-29T03:06:48;99711.34;;;19.10;100.00
60099;BME280;62818;49.394;8.686;2023-07-29T03:07:49;99701.16;;;19.12;100.00
60099;BME280;62818;49.394;8.686;2023-07-29T03:08:49;99703.94;;;19.17;100.00
60099;BME280;62818;49.394;8.686;2023-07-29T03:09:50;99710.38;;;19.16;100.00
60099;BME280;62818;49.394;8.686;2023-07-29T03:10:50;99707.69;;;19.16;100.00
60099;BME280;62818;49.394;8.686;2023-07-29T03:11:51;99707.69;;;19.16;100.00
60099;BME280;62818;49.394;8.686;2023-07-29T03:12:55;99703.84;;;19.12;100.00
60099;BME280;62818;49.394;8.686;2023-07-29T03:13:56;99711.91;;;19.12;100.00
60099;BME280;62818;49.394;8.686;2023-07-29T03:14:57;99701.66;;;19.09;100.00
60099;BME280;62818;49.394;8.686;2023-07-29T03:16:10;99699.72;;;19.05;100.00
60099;BME280;62818;49.394;8.686;2023-07-29T03:17:15;99697.78;;;19.00;100.00
60099;BME280;62818;49.394;8.686;2023-07-29T03:18:15;99691.50;;;18.95;100.00
60099;BME280;62818;49.394;8.686;2023-07-29T03:19:16;99688.16;;;19.04;100.00
60099;BME280;62818;49.394;8.686;2023-07-29T03:20:17;99685.47;;;19.04;100.00
60099;BME280;62818;49.394;8.686;2023-07-29T03:21:20;99685.47;;;19.04;100.00
60099;BME280;62818;49.394;8.686;2023-07-29T03:22:21;99681.97;;;19.04;100.00
60099;BME280;62818;49.394;8.686;2023-07-29T03:23:21;99682.78;;;19.04;100.00
60099;BME280;62818;49.394;8.686;2023-07-29T03:24:22;99690.38;;;19.07;100.00
60099;BME280;62818;49.394;8.686;2023-07-29T03:25:22;99691.16;;;19.08;100.00
60099;BME280;62818;49.394;8.686;2023-07-29T03:26:23;99687.16;;;19.10;100.00
60099;BME280;62818;49.394;8.686;2023-07-29T03:27:23;99686.03;;;19.06;100.00
60099;BME280;62818;49.394;8.686;2023-07-29T03:28:25;99676.41;;;19.10;100.00
60099;BME280;62818;49.394;8.686;2023-07-29T03:29:30;99674.25;;;19.07;100.00
60099;BME280;62818;49.394;8.686;2023-07-29T03:30:30;99676.13;;;19.07;100.00
60099;BME280;62818;49.394;8.686;2023-07-29T03:31:31;99680.03;;;18.99;100.00
60099;BME280;62818;49.394;8.686;2023-07-29T03:32:31;99684.09;;;19.02;100.00
60099;BME280;62818;49.394;8.686;2023-07-29T03:33:32;99675.28;;;19.06;100.00
60099;BME280;62818;49.394;8.686;2023-07-29T03:34:35;99679.63;;;19.07;100.00
60099;BME280;62818;49.394;8.686;2023-07-29T03:35:36;99672.94;;;19.10;100.00
60099;BME280;62818;49.394;8.686;2023-07-29T03:36:36;99677.53;;;19.14;100.00
60099;BME280;62818;49.394;8.686;2023-07-29T03:37:37;99671.03;;;19.10;100.00
60099;BME280;62818;49.394;8.686;2023-07-29T03:38:37;99663.88;;;19.16;100.00
60099;BME280;62818;49.394;8.686;2023-07-29T03:39:40;99664.44;;;19.18;100.00
60099;BME280;62818;49.394;8.686;2023-07-29T03:40:40;99667.44;;;19.21;100.00
60099;BME280;62818;49.394;8.686;2023-07-29T03:41:41;99670.63;;;19.18;100.00
60099;BME280;62818;49.394;8.686;2023-07-29T03:42:42;99668.88;;;19.29;100.00
60099;BME280;62818;49.394;8.686;2023-07-29T03:43:42;99664.53;;;19.23;100.00
60099;BME280;62818;49.394;8.686;2023-07-29T03:44:43;99656.94;;;19.20;100.00
60099;BME280;62818;49.394;8.686;2023-07-29T03:45:43;99652.31;;;19.15;100.00
60099;BME280;62818;49.394;8.686;2023-07-29T03:46:44;99648.88;;;19.20;100.00
60099;BME280;62818;49.394;8.686;2023-07-29T03:47:45;99644.34;;;19.20;100.00
60099;BME280;62818;49.394;8.686;2023-07-29T03:48:45;99635.16;;;19.16;100.00
60099;BME280;62818;49.394;8.686;2023-07-29T03:49:46;99640.56;;;19.21;100.00
60099;BME280;62818;49.394;8.686;2023-07-29T03:50:46;99647.06;;;19.25;100.00
60099;BME280;62818;49.394;8.686;2023-07-29T03:51:47;99641.09;;;19.18;100.00
60099;BME280;62818;49.394;8.686;2023-07-29T03:52:47;99643.03;;;19.23;100.00
60099;BME280;62818;49.394;8.686;2023-07-29T03:53:48;99650.81;;;19.24;100.00
60099;BME280;62818;49.394;8.686;2023-07-29T03:54:48;99654.72;;;19.34;100.00
60099;BME280;62818;49.394;8.686;2023-07-29T03:55:49;99652.69;;;19.41;100.00
60099;BME280;62818;49.394;8.686;2023-07-29T03:56:50;99658.28;;;19.39;100.00
60099;BME280;62818;49.394;8.686;2023-07-29T03:57:51;99662.84;;;19.39;100.00
60099;BME280;62818;49.394;8.686;2023-07-29T03:58:52;99660.41;;;19.37;100.00
60099;BME280;62818;49.394;8.686;2023-07-29T03:59:53;99656.00;;;19.31;100.00
60099;BME280;62818;49.394;8.686;2023-07-29T04:00:53;99654.72;;;19.34;100.00
60099;BME280;62818;49.394;8.686;2023-07-29T04:01:54;99661.38;;;19.31;100.00
60099;BME280;62818;49.394;8.686;2023-07-29T04:02:54;99659.59;;;19.37;100.00
60099;BME280;62818;49.394;8.686;2023-07-29T04:03:55;99675.22;;;19.40;100.00
60099;BME280;62818;49.394;8.686;2023-07-29T04:04:55;99660.75;;;19.41;100.00
60099;BME280;62818;49.394;8.686;2023-07-29T04:05:56;99661.22;;;19.38;100.00
60099;BME280;62818;49.394;8.686;2023-07-29T04:06:56;99661.22;;;19.38;100.00
60099;BME280;62818;49.394;8.686;2023-07-29T04:07:57;99661.78;;;19.40;100.00
60099;BME280;62818;49.394;8.686;2023-07-29T04:08:58;99669.03;;;19.39;100.00
60099;BME280;62818;49.394;8.686;2023-07-29T04:09:58;99662.84;;;19.39;100.00
60099;BME280;62818;49.394;8.686;2023-07-29T04:10:59;99660.56;;;19.31;100.00
60099;BME280;62818;49.394;8.686;2023-07-29T04:11:59;99667.09;;;19.35;100.00
60099;BME280;62818;49.394;8.686;2023-07-29T04:13:00;99660.09;;;19.34;100.00
60099;BME280;62818;49.394;8.686;2023-07-29T04:14:00;99661.88;;;19.28;100.00
60099;BME280;62818;49.394;8.686;2023-07-29T04:15:01;99659.75;;;19.30;100.00
60099;BME280;62818;49.394;8.686;2023-07-29T04:16:02;99658.16;;;19.29;100.00
60099;BME280;62818;49.394;8.686;2023-07-29T04:17:02;99665.47;;;19.34;100.00
60099;BME280;62818;49.394;8.686;2023-07-29T04:18:03;99660.69;;;19.36;100.00
60099;BME280;62818;49.394;8.686;2023-07-29T04:19:03;99651.47;;;19.32;100.00
60099;BME280;62818;49.394;8.686;2023-07-29T04:20:04;99657.31;;;19.29;100.00
60099;BME280;62818;49.394;8.686;2023-07-29T04:21:05;99653.31;;;19.31;100.00
60099;BME280;62818;49.394;8.686;2023-07-29T04:22:05;99654.38;;;19.30;100.00
60099;BME280;62818;49.394;8.686;2023-07-29T04:23:06;99649.81;;;19.31;100.00
60099;BME280;62818;49.394;8.686;2023-07-29T04:24:06;99639.59;;;19.28;100.00
60099;BME280;62818;49.394;8.686;2023-07-29T04:25:07;99636.38;;;19.31;100.00
60099;BME280;62818;49.394;8.686;2023-07-29T04:26:08;99641.69;;;19.25;100.00
60099;BME280;62818;49.394;8.686;2023-07-29T04:27:08;99647.06;;;19.25;100.00
60099;BME280;62818;49.394;8.686;2023-07-29T04:28:09;99648.22;;;19.30;100.00
60099;BME280;62818;49.394;8.686;2023-07-29T04:29:09;99650.91;;;19.30;100.00
60099;BME280;62818;49.394;8.686;2023-07-29T04:30:10;99641.47;;;19.27;100.00
60099;BME280;62818;49.394;8.686;2023-07-29T04:31:11;99644.97;;;19.28;100.00
60099;BME280;62818;49.394;8.686;2023-07-29T04:32:11;99652.75;;;19.29;100.00
60099;BME280;62818;49.394;8.686;2023-07-29T04:33:12;99660.69;;;19.36;100.00
60099;BME280;62818;49.394;8.686;2023-07-29T04:34:12;99663.81;;;19.33;100.00
60099;BME280;62818;49.394;8.686;2023-07-29T04:35:12;99660.91;;;19.34;100.00
60099;BME280;62818;49.394;8.686;2023-07-29T04:36:13;99670.69;;;19.40;100.00
60099;BME280;62818;49.394;8.686;2023-07-29T04:37:14;99663.59;;;19.34;100.00
60099;BME280;62818;49.394;8.686;2023-07-29T04:38:14;99665.69;;;19.32;100.00
60099;BME280;62818;49.394;8.686;2023-07-29T04:39:15;99663.81;;;19.33;100.00
60099;BME280;62818;49.394;8.686;2023-07-29T04:40:15;99677.38;;;19.38;100.00
60099;BME280;62818;49.394;8.686;2023-07-29T04:41:16;99691.34;;;19.40;100.00
60099;BME280;62818;49.394;8.686;2023-07-29T04:42:16;99689.72;;;19.39;100.00
60099;BME280;62818;49.394;8.686;2023-07-29T04:43:17;99693.00;;;19.41;100.00
60099;BME280;62818;49.394;8.686;2023-07-29T04:44:17;99698.88;;;19.38;100.00
60099;BME280;62818;49.394;8.686;2023-07-29T04:45:18;99685.16;;;19.39;100.00
60099;BME280;62818;49.394;8.686;2023-07-29T04:46:18;99686.13;;;19.33;100.00
60099;BME280;62818;49.394;8.686;2023-07-29T04:47:19;99693.81;;;19.24;100.00
60099;BME280;62818;49.394;8.686;2023-07-29T04:48:19;99687.69;;;19.07;100.00
60099;BME280;62818;49.394;8.686;2023-07-29T04:49:20;99693.22;;;18.84;100.00
60099;BME280;62818;49.394;8.686;2023-07-29T04:50:21;99693.13;;;18.79;100.00
60099;BME280;62818;49.394;8.686;2023-07-29T04:51:21;99692.56;;;18.77;100.00
60099;BME280;62818;49.394;8.686;2023-07-29T04:52:22;99694.03;;;18.68;100.00
60099;BME280;62818;49.394;8.686;2023-07-29T04:53:23;99701.47;;;18.61;100.00
60099;BME280;62818;49.394;8.686;2023-07-29T04:54:23;99691.13;;;18.53;100.00
60099;BME280;62818;49.394;8.686;2023-07-29T04:55:23;99687.56;;;18.47;100.00
60099;BME280;62818;49.394;8.686;2023-07-29T04:56:24;99688.66;;;18.35;100.00
60099;BME280;62818;49.394;8.686;2023-07-29T04:57:25;99693.34;;;18.28;100.00
60099;BME280;62818;49.394;8.686;2023-07-29T04:58:26;99688.22;;;18.26;100.00
60099;BME280;62818;49.394;8.686;2023-07-29T04:59:29;99691.03;;;18.20;100.00
60099;BME280;62818;49.394;8.686;2023-07-29T05:00:29;99683.59;;;18.22;100.00
60099;BME280;62818;49.394;8.686;2023-07-29T05:01:29;99679.53;;;18.19;100.00
60099;BME280;62818;49.394;8.686;2023-07-29T05:02:30;99693.16;;;18.18;100.00
60099;BME280;62818;49.394;8.686;2023-07-29T05:03:30;99693.00;;;18.24;100.00
60099;BME280;62818;49.394;8.686;2023-07-29T05:04:31;99690.09;;;18.26;100.00
60099;BME280;62818;49.394;8.686;2023-07-29T05:05:32;99700.47;;;18.22;100.00
60099;BME280;62818;49.394;8.686;2023-07-29T05:06:32;99699.34;;;18.18;100.00
60099;BME280;62818;49.394;8.686;2023-07-29T05:07:33;99695.63;;;18.19;100.00
60099;BME280;62818;49.394;8.686;2023-07-29T05:08:34;99695.78;;;18.13;100.00
60099;BME280;62818;49.394;8.686;2023-07-29T05:09:34;99697.78;;;18.06;100.00
60099;BME280;62818;49.394;8.686;2023-07-29T05:10:35;99706.50;;;18.13;100.00
60099;BME280;62818;49.394;8.686;2023-07-29T05:11:36;99703.66;;;18.19;100.00
60099;BME280;62818;49.394;8.686;2023-07-29T05:12:36;99704.56;;;18.25;100.00
60099;BME280;62818;49.394;8.686;2023-07-29T05:13:37;99701.31;;;18.23;100.00
60099;BME280;62818;49.394;8.686;2023-07-29T05:14:38;99696.81;;;18.12;100.00
60099;BME280;62818;49.394;8.686;2023-07-29T05:15:38;99673.63;;;18.06;100.00
60099;BME280;62818;49.394;8.686;2023-07-29T05:16:39;99666.31;;;18.01;100.00
60099;BME280;62818;49.394;8.686;2023-07-29T05:17:39;99668.19;;;18.01;100.00
60099;BME280;62818;49.394;8.686;2023-07-29T05:18:40;99669.81;;;18.02;100.00
60099;BME280;62818;49.394;8.686;2023-07-29T05:19:41;99667.59;;;17.99;100.00
60099;BME280;62818;49.394;8.686;2023-07-29T05:20:41;99665.50;;;18.01;100.00
60099;BME280;62818;49.394;8.686;2023-07-29T05:21:42;99659.09;;;18.02;100.00
60099;BME280;62818;49.394;8.686;2023-07-29T05:22:43;99661.63;;;18.08;100.00
60099;BME280;62818;49.394;8.686;2023-07-29T05:23:43;99660.47;;;18.04;100.00
60099;BME280;62818;49.394;8.686;2023-07-29T05:24:44;99670.97;;;18.06;100.00
60099;BME280;62818;49.394;8.686;2023-07-29T05:25:44;99673.75;;;18.11;100.00
60099;BME280;62818;49.394;8.686;2023-07-29T05:26:45;99672.09;;;18.10;100.00
60099;BME280;62818;49.394;8.686;2023-07-29T05:27:46;99672.66;;;18.12;100.00